createdAt,value
2022-11-25T00:01:20.000Z,17.63
2022-11-25T00:03:57.560Z,12.53
2022-11-25T00:06:35.344Z,9.97
2022-11-25T00:09:12.562Z,9.87
2022-11-25T00:11:47.434Z,16.80
2022-11-25T00:14:22.347Z,13.83
2022-11-25T00:16:57.228Z,17.93
2022-11-25T00:19:32.156Z,13.33
2022-11-25T00:22:06.990Z,16.30
2022-11-25T00:24:41.825Z,11.50
2022-11-25T00:27:16.652Z,10.73
2022-11-25T00:29:51.514Z,13.30
2022-11-25T00:32:26.426Z,14.50
2022-11-25T00:35:01.274Z,11.70
2022-11-25T00:37:36.119Z,11.87
2022-11-25T00:40:13.455Z,14.53
2022-11-25T00:43:06.628Z,12.83
2022-11-25T00:45:42.118Z,14.77
2022-11-25T00:48:17.988Z,8.00
2022-11-25T00:50:52.817Z,12.87
2022-11-25T00:53:27.700Z,8.47
2022-11-25T00:56:20.754Z,8.83
2022-11-25T00:58:55.894Z,11.70
2022-11-25T01:01:30.962Z,9.40
2022-11-25T01:04:07.489Z,13.80
2022-11-25T01:06:42.422Z,10.37
2022-11-25T01:09:17.304Z,9.50
2022-11-25T01:11:53.122Z,9.77
2022-11-25T01:14:28.044Z,14.00
2022-11-25T01:17:03.365Z,13.50
2022-11-25T01:19:41.928Z,13.17
2022-11-25T01:22:16.754Z,11.50
2022-11-25T01:24:51.609Z,10.03
2022-11-25T01:27:28.392Z,10.20
2022-11-25T01:30:03.546Z,11.13
2022-11-25T01:32:38.404Z,12.10
2022-11-25T01:35:14.817Z,9.27
2022-11-25T01:37:49.713Z,9.60
2022-11-25T01:40:24.642Z,13.50
2022-11-25T01:42:59.534Z,11.17
2022-11-25T01:45:37.362Z,11.50
2022-11-25T01:48:23.055Z,16.43
2022-11-25T01:50:58.016Z,12.80
2022-11-25T01:53:34.645Z,14.47
2022-11-25T01:56:09.560Z,11.97
2022-11-25T01:58:47.422Z,12.47
2022-11-25T02:01:23.083Z,10.67
2022-11-25T02:04:00.980Z,10.40
2022-11-25T02:06:45.365Z,11.63
2022-11-25T02:09:23.027Z,10.83
2022-11-25T02:11:58.451Z,11.90
2022-11-25T02:14:33.917Z,13.17
2022-11-25T02:17:09.045Z,8.93
2022-11-25T02:19:53.591Z,10.53
2022-11-25T02:22:54.390Z,9.33
2022-11-25T02:25:36.262Z,12.80
2022-11-25T02:28:24.664Z,13.50
2022-11-25T02:30:59.928Z,9.80
2022-11-25T02:33:34.961Z,11.73
2022-11-25T02:36:16.733Z,10.13
2022-11-25T02:39:03.353Z,13.27
2022-11-25T02:41:47.573Z,11.90
2022-11-25T02:44:22.706Z,10.50
2022-11-25T02:46:57.634Z,9.30
2022-11-25T02:49:32.854Z,10.67
2022-11-25T02:52:07.841Z,11.37
2022-11-25T02:54:42.748Z,10.63
2022-11-25T02:57:17.630Z,7.77
2022-11-25T02:59:52.877Z,9.77
2022-11-25T03:02:27.887Z,11.60
2022-11-25T03:05:02.852Z,13.63
2022-11-25T03:07:37.948Z,22.07
2022-11-25T03:10:13.137Z,14.07
2022-11-25T03:12:48.686Z,13.87
2022-11-25T03:15:24.110Z,10.83
2022-11-25T03:17:58.981Z,15.73
2022-11-25T03:20:36.695Z,14.00
2022-11-25T03:23:11.629Z,17.70
2022-11-25T03:25:46.563Z,12.07
2022-11-25T03:28:21.543Z,10.00
2022-11-25T03:30:56.863Z,10.47
2022-11-25T03:33:33.082Z,14.50
2022-11-25T03:36:08.190Z,13.77
2022-11-25T03:38:43.052Z,13.20
2022-11-25T03:41:18.089Z,11.27
2022-11-25T03:43:53.038Z,13.70
2022-11-25T03:46:28.060Z,10.50
2022-11-25T03:49:03.536Z,12.63
2022-11-25T03:51:38.586Z,10.47
2022-11-25T03:54:13.747Z,14.33
2022-11-25T03:57:14.462Z,12.27
2022-11-25T03:59:49.359Z,13.60
2022-11-25T04:02:25.977Z,13.60
2022-11-25T04:05:00.981Z,10.57
2022-11-25T04:07:36.039Z,15.43
2022-11-25T04:10:14.322Z,14.20
2022-11-25T04:12:52.462Z,15.87
2022-11-25T04:15:31.791Z,13.90
2022-11-25T04:18:07.487Z,13.20
2022-11-25T04:20:42.736Z,11.20
2022-11-25T04:23:17.791Z,13.17
2022-11-25T04:26:01.213Z,13.87
2022-11-25T04:28:43.871Z,14.80
2022-11-25T04:31:19.048Z,13.77
2022-11-25T04:33:55.079Z,11.80
2022-11-25T04:36:31.691Z,13.97
2022-11-25T04:39:06.655Z,20.50
2022-11-25T04:41:43.855Z,9.37
2022-11-25T04:44:18.755Z,10.43
2022-11-25T04:46:53.712Z,14.00
2022-11-25T04:49:28.920Z,13.10
2022-11-25T04:52:04.547Z,9.70
2022-11-25T04:54:39.551Z,13.17
2022-11-25T04:57:16.048Z,12.70
2022-11-25T04:59:53.419Z,12.60
2022-11-25T05:02:28.910Z,13.33
2022-11-25T05:05:13.612Z,9.90
2022-11-25T05:07:48.590Z,13.10
2022-11-25T05:10:23.685Z,11.87
2022-11-25T05:12:59.048Z,10.03
2022-11-25T05:15:33.925Z,10.87
2022-11-25T05:18:11.667Z,15.93
2022-11-25T05:20:53.056Z,13.57
2022-11-25T05:23:29.627Z,11.37
2022-11-25T05:26:05.312Z,11.60
2022-11-25T05:28:49.829Z,11.50
2022-11-25T05:31:24.785Z,12.57
2022-11-25T05:34:03.950Z,9.03
2022-11-25T05:36:39.106Z,9.50
2022-11-25T05:39:14.104Z,10.73
2022-11-25T05:42:17.894Z,12.60
2022-11-25T05:44:53.462Z,9.77
2022-11-25T05:47:28.424Z,14.33
2022-11-25T05:50:03.818Z,8.53
2022-11-25T05:52:39.188Z,9.13
2022-11-25T05:55:14.403Z,9.20
2022-11-25T05:57:50.484Z,10.40
2022-11-25T06:00:27.121Z,12.43
2022-11-25T06:03:02.975Z,10.50
2022-11-25T06:05:38.341Z,10.40
2022-11-25T06:08:13.414Z,9.73
2022-11-25T06:10:48.647Z,11.60
2022-11-25T06:13:24.052Z,10.67
2022-11-25T06:16:03.550Z,8.00
2022-11-25T06:18:43.434Z,12.40
2022-11-25T06:21:19.195Z,11.10
2022-11-25T06:23:54.102Z,10.67
2022-11-25T06:26:29.199Z,11.43
2022-11-25T06:29:04.249Z,8.67
2022-11-25T06:31:39.209Z,15.93
2022-11-25T06:34:32.895Z,10.83
2022-11-25T06:37:10.301Z,12.10
2022-11-25T06:39:45.215Z,13.73
2022-11-25T06:42:20.104Z,12.13
2022-11-25T06:44:54.972Z,9.50
2022-11-25T06:47:30.152Z,12.53
2022-11-25T06:50:05.961Z,12.90
2022-11-25T06:52:40.884Z,11.17
2022-11-25T06:55:15.889Z,14.50
2022-11-25T06:57:53.336Z,12.33
2022-11-25T07:00:30.773Z,13.07
2022-11-25T07:03:05.689Z,14.27
2022-11-25T07:05:40.590Z,9.00
2022-11-25T07:08:15.659Z,17.03
2022-11-25T07:10:51.302Z,15.40
2022-11-25T07:13:26.238Z,17.60
2022-11-25T07:16:06.883Z,16.30
2022-11-25T07:18:42.427Z,11.40
2022-11-25T07:21:23.991Z,10.73
2022-11-25T07:24:02.819Z,12.07
2022-11-25T07:26:41.184Z,13.90
2022-11-25T07:29:51.651Z,12.03
2022-11-25T07:32:11.753Z,11.53
2022-11-25T07:34:46.662Z,7.30
2022-11-25T07:37:21.631Z,9.03
2022-11-25T07:39:56.587Z,11.10
2022-11-25T07:42:31.511Z,10.80
2022-11-25T07:45:07.128Z,13.30
2022-11-25T07:47:50.131Z,9.67
2022-11-25T07:50:25.071Z,7.27
2022-11-25T07:53:00.025Z,8.83
2022-11-25T07:55:35.195Z,8.23
2022-11-25T07:58:10.092Z,7.63
2022-11-25T08:00:45.010Z,8.67
2022-11-25T08:03:20.023Z,5.90
2022-11-25T08:05:55.171Z,5.53
2022-11-25T08:08:30.261Z,5.97
2022-11-25T08:11:33.029Z,5.53
2022-11-25T08:14:08.509Z,4.30
2022-11-25T08:16:43.695Z,6.70
2022-11-25T08:19:19.390Z,5.23
2022-11-25T08:21:54.762Z,5.87
2022-11-25T08:24:29.772Z,6.27
2022-11-25T08:27:05.203Z,6.70
2022-11-25T08:29:40.115Z,7.23
2022-11-25T08:32:15.163Z,5.80
2022-11-25T08:34:50.214Z,7.60
2022-11-25T08:37:25.353Z,9.30
2022-11-25T08:40:01.093Z,10.07
2022-11-25T08:42:38.130Z,6.43
2022-11-25T08:45:13.075Z,6.30
2022-11-25T08:47:48.039Z,5.60
2022-11-25T08:50:26.483Z,5.50
2022-11-25T08:53:01.753Z,5.13
2022-11-25T08:55:38.864Z,6.70
2022-11-25T08:58:13.864Z,7.77
2022-11-25T09:00:48.797Z,5.73
2022-11-25T09:03:23.982Z,7.77
2022-11-25T09:05:59.109Z,7.23
2022-11-25T09:08:34.604Z,6.67
2022-11-25T09:11:10.813Z,5.90
2022-11-25T09:13:45.866Z,7.83
2022-11-25T09:16:21.359Z,9.93
2022-11-25T09:18:56.647Z,5.77
2022-11-25T09:21:31.567Z,6.50
2022-11-25T09:24:06.676Z,5.10
2022-11-25T09:26:42.241Z,8.13
2022-11-25T09:29:17.215Z,8.87
2022-11-25T09:31:54.967Z,4.90
2022-11-25T09:34:30.300Z,5.97
2022-11-25T09:37:05.521Z,6.57
2022-11-25T09:39:40.687Z,7.30
2022-11-25T09:42:58.258Z,6.20
2022-11-25T09:46:28.276Z,5.17
2022-11-25T09:49:47.446Z,9.50
2022-11-25T09:52:49.618Z,7.00
2022-11-25T09:55:31.484Z,6.60
2022-11-25T09:58:17.783Z,9.07
2022-11-25T10:00:53.468Z,8.80
2022-11-25T10:03:45.759Z,7.00
2022-11-25T10:06:24.747Z,9.07
2022-11-25T10:09:07.187Z,7.30
2022-11-25T10:11:56.402Z,8.17
2022-11-25T10:14:48.918Z,7.23
2022-11-25T10:17:52.039Z,6.83
2022-11-25T10:20:34.500Z,9.57
2022-11-25T10:23:26.441Z,8.90
2022-11-25T10:26:15.037Z,8.00
2022-11-25T10:29:41.962Z,13.73
2022-11-25T10:32:25.660Z,8.00
2022-11-25T10:35:07.719Z,6.90
2022-11-25T10:37:45.713Z,9.00
2022-11-25T10:40:20.902Z,7.63
2022-11-25T10:42:55.880Z,9.00
2022-11-25T10:45:55.537Z,7.30
2022-11-25T10:48:38.854Z,6.30
2022-11-25T10:51:48.574Z,6.10
2022-11-25T10:54:28.071Z,6.07
2022-11-25T10:57:14.465Z,9.00
2022-11-25T10:59:59.004Z,5.27
2022-11-25T11:02:41.329Z,6.90
2022-11-25T11:05:23.685Z,6.53
2022-11-25T11:08:13.806Z,5.60
2022-11-25T11:11:11.257Z,6.77
2022-11-25T11:13:47.538Z,6.30
2022-11-25T11:16:34.472Z,9.53
2022-11-25T11:19:26.711Z,7.63
2022-11-25T11:22:23.491Z,13.40
2022-11-25T11:25:20.262Z,9.53
2022-11-25T11:27:55.542Z,6.23
2022-11-25T11:30:32.974Z,5.93
2022-11-25T11:33:42.484Z,9.07
2022-11-25T11:36:48.833Z,7.67
2022-11-25T11:40:03.899Z,8.33
2022-11-25T11:42:52.671Z,9.20
2022-11-25T11:46:28.223Z,3.80
2022-11-25T11:49:47.879Z,6.33
2022-11-25T11:52:41.567Z,3.13
2022-11-25T11:55:43.822Z,4.23
2022-11-25T11:58:50.013Z,8.87
2022-11-25T12:01:49.425Z,6.30
2022-11-25T12:05:03.213Z,7.53
2022-11-25T12:08:06.519Z,5.23
2022-11-25T12:11:03.344Z,2.87
2022-11-25T12:13:50.765Z,3.77
2022-11-25T12:16:48.721Z,3.20
2022-11-25T12:20:08.107Z,7.60
2022-11-25T12:23:01.331Z,3.33
2022-11-25T12:25:40.680Z,5.00
2022-11-25T12:28:46.278Z,4.73
2022-11-25T12:31:27.778Z,2.53
2022-11-25T12:34:15.931Z,7.80
2022-11-25T12:36:59.397Z,3.50
2022-11-25T12:39:41.423Z,6.23
2022-11-25T12:42:25.809Z,3.97
2022-11-25T12:45:17.686Z,4.57
2022-11-25T12:47:53.651Z,2.47
2022-11-25T12:51:10.704Z,3.20
2022-11-25T12:54:17.690Z,4.20
2022-11-25T12:57:01.458Z,3.00
2022-11-25T12:59:39.161Z,2.67
2022-11-25T13:02:47.765Z,3.27
2022-11-25T13:05:49.826Z,6.47
2022-11-25T13:09:05.326Z,8.17
2022-11-25T13:12:04.706Z,3.10
2022-11-25T13:14:54.909Z,5.67
2022-11-25T13:17:34.160Z,5.50
2022-11-25T13:20:27.497Z,4.40
2022-11-25T13:23:05.552Z,2.57
2022-11-25T13:25:43.996Z,4.07
2022-11-25T13:28:38.311Z,3.50
2022-11-25T13:31:20.864Z,3.93
2022-11-25T13:34:32.101Z,2.10
2022-11-25T13:37:33.542Z,2.87
2022-11-25T13:40:29.429Z,2.53
2022-11-25T13:43:05.897Z,6.93
2022-11-25T13:45:44.849Z,3.83
2022-11-25T13:48:32.236Z,2.20
2022-11-25T13:51:22.291Z,2.70
2022-11-25T13:54:05.421Z,3.30
2022-11-25T13:56:40.361Z,3.37
2022-11-25T13:59:20.063Z,4.83
2022-11-25T14:01:55.274Z,6.50
2022-11-25T14:05:29.797Z,6.30
2022-11-25T14:08:25.775Z,4.63
2022-11-25T14:11:09.452Z,4.80
2022-11-25T14:14:37.933Z,4.40
2022-11-25T14:17:39.848Z,3.60
2022-11-25T14:20:48.305Z,5.30
2022-11-25T14:23:47.821Z,4.50
2022-11-25T14:26:49.195Z,8.23
2022-11-25T14:29:37.706Z,4.47
2022-11-25T14:32:35.308Z,2.53
2022-11-25T14:35:22.581Z,6.60
2022-11-25T14:38:04.167Z,3.63
2022-11-25T14:40:53.047Z,6.37
2022-11-25T14:43:37.403Z,4.47
2022-11-25T14:46:16.661Z,3.20
2022-11-25T14:49:02.933Z,4.43
2022-11-25T14:51:39.038Z,5.73
2022-11-25T14:54:14.715Z,5.67
2022-11-25T14:56:49.917Z,4.03
2022-11-25T14:59:26.989Z,5.00
2022-11-25T15:02:02.002Z,8.27
2022-11-25T15:04:41.864Z,3.63
2022-11-25T15:07:30.723Z,5.53
2022-11-25T15:10:07.438Z,5.93
2022-11-25T15:12:47.152Z,4.03
2022-11-25T15:15:27.543Z,8.50
2022-11-25T15:18:06.958Z,3.37
2022-11-25T15:20:51.279Z,3.17
2022-11-25T15:23:36.315Z,4.10
2022-11-25T15:26:22.779Z,5.20
2022-11-25T15:29:10.958Z,2.80
2022-11-25T15:31:48.531Z,2.97
2022-11-25T15:34:24.645Z,5.53
2022-11-25T15:37:03.100Z,3.30
2022-11-25T15:39:38.885Z,3.30
2022-11-25T15:42:23.213Z,4.43
2022-11-25T15:45:10.418Z,4.60
2022-11-25T15:47:45.720Z,4.20
2022-11-25T15:50:26.070Z,6.70
2022-11-25T15:53:01.716Z,3.53
2022-11-25T15:55:39.610Z,4.27
2022-11-25T15:58:21.936Z,5.47
2022-11-25T16:01:24.480Z,7.07
2022-11-25T16:04:21.305Z,4.53
2022-11-25T16:06:59.475Z,6.80
2022-11-25T16:09:34.607Z,5.83
2022-11-25T16:12:17.842Z,3.17
2022-11-25T16:14:52.724Z,4.80
2022-11-25T16:17:28.192Z,4.70
2022-11-25T16:20:03.546Z,7.23
2022-11-25T16:22:38.450Z,4.53
2022-11-25T16:25:17.281Z,3.30
2022-11-25T16:27:52.974Z,4.80
2022-11-25T16:30:28.590Z,6.40
2022-11-25T16:33:10.621Z,7.80
2022-11-25T16:35:45.588Z,3.77
2022-11-25T16:38:20.547Z,3.93
2022-11-25T16:40:56.622Z,4.97
2022-11-25T16:43:31.524Z,4.10
2022-11-25T16:46:07.070Z,5.27
2022-11-25T16:48:42.045Z,4.80
2022-11-25T16:51:20.275Z,4.20
2022-11-25T16:53:55.167Z,7.47
2022-11-25T16:56:30.486Z,3.63
2022-11-25T16:59:05.561Z,6.80
2022-11-25T17:01:40.591Z,5.50
2022-11-25T17:04:15.811Z,6.47
2022-11-25T17:07:16.624Z,6.00
2022-11-25T17:09:46.657Z,7.13
2022-11-25T17:12:30.066Z,4.17
2022-11-25T17:15:08.681Z,4.87
2022-11-25T17:17:47.831Z,3.50
2022-11-25T17:20:25.135Z,5.73
2022-11-25T17:23:00.311Z,4.23
2022-11-25T17:25:37.279Z,3.20
2022-11-25T17:28:17.876Z,3.83
2022-11-25T17:30:52.934Z,5.17
2022-11-25T17:33:27.848Z,4.90
2022-11-25T17:36:02.862Z,4.87
2022-11-25T17:38:40.283Z,5.20
2022-11-25T17:41:25.266Z,3.20
2022-11-25T17:44:01.215Z,5.13
2022-11-25T17:46:36.110Z,6.50
2022-11-25T17:49:15.442Z,5.37
2022-11-25T17:51:50.574Z,8.03
2022-11-25T17:54:25.490Z,4.30
2022-11-25T17:57:00.541Z,5.13
2022-11-25T17:59:36.042Z,7.77
2022-11-25T18:02:20.058Z,5.77
2022-11-25T18:04:56.066Z,4.30
2022-11-25T18:07:31.170Z,9.27
2022-11-25T18:10:06.940Z,7.27
2022-11-25T18:12:44.728Z,10.10
2022-11-25T18:15:27.392Z,8.07
2022-11-25T18:18:07.027Z,6.80
2022-11-25T18:20:41.995Z,10.27
2022-11-25T18:23:17.482Z,10.40
2022-11-25T18:25:53.295Z,10.47
2022-11-25T18:28:31.160Z,11.10
2022-11-25T18:31:06.808Z,8.70
2022-11-25T18:33:41.918Z,9.77
2022-11-25T18:36:16.960Z,9.20
2022-11-25T18:38:53.445Z,7.87
2022-11-25T18:41:28.568Z,13.07
2022-11-25T18:44:06.299Z,9.70
2022-11-25T18:46:41.206Z,8.40
2022-11-25T18:49:16.340Z,12.23
2022-11-25T18:51:51.292Z,10.30
2022-11-25T18:54:26.177Z,6.67
2022-11-25T18:57:01.622Z,10.97
2022-11-25T18:59:37.377Z,7.43
2022-11-25T19:02:18.392Z,9.97
2022-11-25T19:04:53.613Z,10.33
2022-11-25T19:07:28.640Z,12.53
2022-11-25T19:10:04.574Z,5.30
2022-11-25T19:12:45.792Z,10.03
2022-11-25T19:15:23.686Z,8.33
2022-11-25T19:18:02.822Z,11.67
2022-11-25T19:20:38.313Z,9.23
2022-11-25T19:23:25.282Z,13.57
2022-11-25T19:26:07.597Z,8.57
2022-11-25T19:28:47.166Z,9.33
2022-11-25T19:31:22.415Z,7.30
2022-11-25T19:33:57.750Z,7.80
2022-11-25T19:36:34.944Z,11.80
2022-11-25T19:39:20.452Z,7.90
2022-11-25T19:41:55.562Z,7.60
2022-11-25T19:44:30.495Z,7.60
2022-11-25T19:47:15.308Z,6.00
2022-11-25T19:49:53.759Z,10.03
2022-11-25T19:52:35.936Z,7.10
2022-11-25T19:55:23.368Z,10.47
2022-11-25T19:57:59.287Z,7.37
2022-11-25T20:00:34.768Z,4.90
2022-11-25T20:03:24.944Z,6.97
2022-11-25T20:05:59.889Z,9.03
2022-11-25T20:08:34.858Z,9.80
2022-11-25T20:11:15.889Z,7.93
2022-11-25T20:13:51.156Z,5.73
2022-11-25T20:16:39.706Z,8.93
2022-11-25T20:19:18.012Z,14.73
2022-11-25T20:21:53.003Z,10.53
2022-11-25T20:24:27.986Z,7.30
2022-11-25T20:27:02.907Z,10.70
2022-11-25T20:29:37.847Z,11.50
2022-11-25T20:32:29.317Z,9.90
2022-11-25T20:35:04.554Z,8.13
2022-11-25T20:37:50.979Z,9.10
2022-11-25T20:40:38.170Z,6.80
2022-11-25T20:43:34.429Z,6.80
2022-11-25T20:46:23.641Z,6.33
2022-11-25T20:49:03.271Z,8.10
2022-11-25T20:51:39.879Z,8.27
2022-11-25T20:54:15.163Z,6.53
2022-11-25T20:56:50.255Z,8.77
2022-11-25T20:59:25.251Z,5.30
2022-11-25T21:02:00.243Z,8.17
2022-11-25T21:04:35.508Z,6.30
2022-11-25T21:07:17.950Z,6.80
2022-11-25T21:09:53.018Z,4.80
2022-11-25T21:12:27.976Z,4.47
2022-11-25T21:15:14.238Z,6.80
2022-11-25T21:17:50.130Z,6.80
2022-11-25T21:20:25.319Z,7.30
2022-11-25T21:23:05.641Z,5.10
2022-11-25T21:25:40.600Z,3.83
2022-11-25T21:28:20.072Z,8.57
2022-11-25T21:30:55.034Z,4.90
2022-11-25T21:33:29.925Z,4.60
2022-11-25T21:36:05.084Z,4.93
2022-11-25T21:38:39.953Z,4.20
2022-11-25T21:41:15.022Z,7.07
2022-11-25T21:43:51.083Z,8.30
2022-11-25T21:46:26.566Z,6.47
2022-11-25T21:49:01.666Z,4.27
2022-11-25T21:51:36.565Z,11.97
2022-11-25T21:54:11.464Z,5.40
2022-11-25T21:56:46.782Z,3.93
2022-11-25T21:59:21.700Z,4.73
2022-11-25T22:01:57.063Z,5.63
2022-11-25T22:04:31.944Z,6.50
2022-11-25T22:07:06.853Z,5.67
2022-11-25T22:09:42.449Z,6.53
2022-11-25T22:12:30.774Z,5.80
2022-11-25T22:15:09.819Z,3.87
2022-11-25T22:17:45.708Z,7.77
2022-11-25T22:20:41.136Z,5.20
2022-11-25T22:23:22.491Z,8.70
2022-11-25T22:25:57.961Z,10.70
2022-11-25T22:28:34.229Z,7.80
2022-11-25T22:31:12.260Z,5.30
2022-11-25T22:33:47.706Z,7.77
2022-11-25T22:36:28.156Z,8.60
2022-11-25T22:39:25.175Z,6.23
2022-11-25T22:42:07.641Z,3.80
2022-11-25T22:44:47.936Z,12.80
2022-11-25T22:47:29.119Z,11.73
2022-11-25T22:50:30.890Z,7.90
2022-11-25T22:53:19.487Z,5.43
2022-11-25T22:55:58.477Z,7.40
2022-11-25T22:58:33.396Z,10.40
2022-11-25T23:01:16.367Z,5.80
2022-11-25T23:03:51.925Z,7.57
2022-11-25T23:06:27.130Z,7.47
2022-11-25T23:09:02.950Z,8.50
2022-11-25T23:11:40.147Z,5.70
2022-11-25T23:14:15.410Z,4.13
2022-11-25T23:16:50.369Z,5.80
2022-11-25T23:19:25.344Z,9.80
2022-11-25T23:22:00.293Z,8.63
2022-11-25T23:24:35.374Z,7.70
2022-11-25T23:27:10.708Z,8.97
2022-11-25T23:29:45.695Z,8.93
2022-11-25T23:32:20.972Z,9.80
2022-11-25T23:34:55.855Z,5.03
2022-11-25T23:37:30.893Z,7.33
2022-11-25T23:40:06.851Z,5.63
2022-11-25T23:42:41.827Z,4.57
2022-11-25T23:45:20.911Z,6.40
2022-11-25T23:47:56.905Z,6.60
2022-11-25T23:50:34.044Z,5.50
2022-11-25T23:53:21.786Z,4.80
2022-11-25T23:55:56.819Z,5.30
2022-11-25T23:58:31.696Z,7.10
